createdAt,value
2018-06-13T00:00:03.100Z,19.93
2018-06-13T00:02:35.552Z,19.83
2018-06-13T00:05:11.705Z,21.50
2018-06-13T00:07:46.580Z,20.97
2018-06-13T00:10:15.436Z,20.03
2018-06-13T00:12:44.212Z,19.80
2018-06-13T00:15:16.657Z,27.20
2018-06-13T00:17:48.565Z,20.10
2018-06-13T00:20:18.382Z,19.63
2018-06-13T00:22:47.189Z,18.60
2018-06-13T00:25:18.088Z,21.63
2018-06-13T00:27:46.824Z,18.27
2018-06-13T00:30:19.716Z,19.17
2018-06-13T00:32:48.504Z,18.60
2018-06-13T00:35:17.385Z,17.93
2018-06-13T00:37:56.713Z,16.90
2018-06-13T00:40:32.725Z,19.60
2018-06-13T00:43:03.287Z,19.67
2018-06-13T00:45:34.037Z,18.93
2018-06-13T00:48:03.889Z,13.77
2018-06-13T00:50:32.756Z,13.97
2018-06-13T00:53:01.661Z,15.87
2018-06-13T00:55:31.517Z,14.43
2018-06-13T00:58:00.346Z,15.90
2018-06-13T01:00:29.256Z,16.00
2018-06-13T01:02:59.044Z,15.03
2018-06-13T01:05:27.588Z,13.27
2018-06-13T01:07:56.252Z,15.53
2018-06-13T01:10:25.121Z,21.23
2018-06-13T01:12:54.316Z,16.37
2018-06-13T01:15:30.056Z,14.43
2018-06-13T01:17:59.844Z,13.20
2018-06-13T01:20:32.468Z,13.20
2018-06-13T01:23:01.245Z,11.60
2018-06-13T01:25:31.059Z,15.70
2018-06-13T01:28:00.880Z,13.40
2018-06-13T01:30:37.385Z,12.30
2018-06-13T01:33:06.141Z,15.30
2018-06-13T01:35:34.936Z,15.50
2018-06-13T01:38:04.941Z,16.90
2018-06-13T01:40:33.836Z,11.53
2018-06-13T01:43:03.607Z,12.63
2018-06-13T01:45:34.375Z,11.10
2018-06-13T01:48:03.264Z,11.47
2018-06-13T01:50:32.144Z,10.50
2018-06-13T01:53:00.932Z,11.30
2018-06-13T01:55:30.776Z,13.40
2018-06-13T01:58:00.527Z,10.27
2018-06-13T02:00:31.371Z,16.20
2018-06-13T02:03:01.168Z,9.27
2018-06-13T02:05:36.568Z,10.07
2018-06-13T02:08:09.099Z,9.80
2018-06-13T02:10:39.920Z,8.90
2018-06-13T02:13:08.745Z,10.73
2018-06-13T02:15:39.563Z,9.40
2018-06-13T02:18:08.484Z,10.37
2018-06-13T02:20:41.567Z,9.17
2018-06-13T02:23:20.903Z,10.70
2018-06-13T02:25:49.780Z,12.70
2018-06-13T02:28:18.672Z,9.87
2018-06-13T02:30:52.644Z,12.13
2018-06-13T02:33:23.536Z,9.67
2018-06-13T02:36:02.125Z,10.50
2018-06-13T02:38:30.667Z,8.43
2018-06-13T02:41:01.392Z,18.27
2018-06-13T02:43:30.271Z,13.00
2018-06-13T02:46:07.136Z,14.40
2018-06-13T02:48:37.019Z,9.60
2018-06-13T02:51:10.423Z,8.10
2018-06-13T02:53:40.268Z,9.83
2018-06-13T02:56:13.032Z,9.80
2018-06-13T02:58:47.843Z,8.50
2018-06-13T03:01:20.994Z,8.20
2018-06-13T03:03:51.936Z,9.03
2018-06-13T03:06:20.843Z,10.27
2018-06-13T03:09:01.256Z,12.53
2018-06-13T03:11:36.060Z,11.10
2018-06-13T03:14:04.895Z,10.30
2018-06-13T03:16:33.768Z,9.77
2018-06-13T03:19:02.539Z,8.80
2018-06-13T03:21:31.407Z,9.60
2018-06-13T03:24:00.299Z,10.73
2018-06-13T03:26:34.039Z,10.70
2018-06-13T03:29:02.890Z,8.80
2018-06-13T03:31:31.791Z,10.03
2018-06-13T03:34:00.723Z,11.50
2018-06-13T03:36:33.055Z,8.73
2018-06-13T03:39:01.844Z,8.70
2018-06-13T03:41:30.577Z,12.00
2018-06-13T03:44:00.360Z,9.23
2018-06-13T03:46:31.212Z,12.13
2018-06-13T03:49:01.204Z,10.90
2018-06-13T03:51:31.148Z,11.43
2018-06-13T03:54:01.056Z,12.53
2018-06-13T03:56:29.920Z,11.00
2018-06-13T03:58:58.787Z,8.60
2018-06-13T04:01:27.668Z,11.27
2018-06-13T04:04:01.696Z,12.23
2018-06-13T04:06:46.035Z,8.73
2018-06-13T04:09:18.116Z,9.90
2018-06-13T04:11:50.024Z,8.20
2018-06-13T04:14:18.800Z,8.70
2018-06-13T04:16:51.100Z,10.13
2018-06-13T04:19:20.880Z,9.90
2018-06-13T04:21:49.687Z,11.90
2018-06-13T04:24:18.488Z,17.80
2018-06-13T04:26:55.512Z,9.13
2018-06-13T04:29:24.412Z,19.33
2018-06-13T04:31:59.207Z,14.40
2018-06-13T04:34:31.644Z,13.60
2018-06-13T04:37:01.476Z,11.50
2018-06-13T04:39:33.524Z,10.10
2018-06-13T04:42:02.018Z,11.30
2018-06-13T04:44:37.865Z,13.67
2018-06-13T04:49:55.499Z,12.40
2018-06-13T04:52:24.231Z,12.97
2018-06-13T04:54:58.559Z,11.10
2018-06-13T04:57:28.431Z,13.50
2018-06-13T04:59:57.175Z,12.50
2018-06-13T05:02:25.987Z,14.20
2018-06-13T05:05:02.691Z,18.30
2018-06-13T05:07:31.540Z,14.17
2018-06-13T05:10:16.487Z,14.03
2018-06-13T05:12:53.135Z,16.70
2018-06-13T05:15:24.967Z,12.63
2018-06-13T05:17:54.755Z,13.93
2018-06-13T05:20:35.282Z,13.60
2018-06-13T05:23:07.708Z,11.20
2018-06-13T05:25:42.179Z,12.50
2018-06-13T05:28:11.923Z,16.13
2018-06-13T05:30:44.643Z,15.07
2018-06-13T05:33:13.599Z,11.97
2018-06-13T05:35:48.903Z,14.03
2018-06-13T05:38:21.462Z,11.80
2018-06-13T05:41:01.883Z,12.40
2018-06-13T05:43:36.411Z,12.23
2018-06-13T05:46:07.215Z,10.33
2018-06-13T05:51:35.479Z,15.43
2018-06-13T05:54:04.555Z,10.50
2018-06-13T05:56:40.123Z,12.47
2018-06-13T05:59:13.308Z,10.00
2018-06-13T06:01:52.031Z,10.00
2018-06-13T06:04:22.767Z,10.67
2018-06-13T06:06:52.519Z,9.90
2018-06-13T06:09:22.315Z,17.73
2018-06-13T06:11:53.067Z,12.63
2018-06-13T06:14:42.579Z,24.30
2018-06-13T06:20:10.979Z,8.80
2018-06-13T06:22:48.324Z,9.83
2018-06-13T06:25:20.711Z,8.93
2018-06-13T06:27:50.443Z,8.80
2018-06-13T06:33:29.287Z,9.87
2018-06-13T06:36:02.124Z,10.97
2018-06-13T06:38:46.983Z,7.90
2018-06-13T06:41:22.287Z,7.00
2018-06-13T06:43:51.075Z,7.13
2018-06-13T06:46:30.187Z,10.17
2018-06-13T06:49:02.811Z,8.33
2018-06-13T06:51:43.216Z,6.47
2018-06-13T06:54:14.063Z,6.03
2018-06-13T06:57:00.976Z,9.30
2018-06-13T06:59:30.735Z,9.80
2018-06-13T07:01:59.487Z,9.10
2018-06-13T07:04:29.261Z,9.13
2018-06-13T07:06:59.060Z,6.47
2018-06-13T07:12:27.211Z,14.33
2018-06-13T07:14:57.999Z,7.60
2018-06-13T07:17:26.895Z,8.20
2018-06-13T07:20:02.095Z,9.07
2018-06-13T07:22:41.063Z,9.20
2018-06-13T07:25:09.839Z,5.83
2018-06-13T07:28:01.591Z,9.17
2018-06-13T07:30:45.731Z,6.13
2018-06-13T07:33:34.806Z,8.10
2018-06-13T07:36:04.376Z,6.90
2018-06-13T07:38:36.776Z,11.83
2018-06-13T07:41:11.235Z,8.33
2018-06-13T07:43:40.467Z,6.00
2018-06-13T07:46:15.839Z,6.87
2018-06-13T07:49:01.387Z,8.27
2018-06-13T07:51:44.247Z,6.17
2018-06-13T07:54:13.039Z,5.53
2018-06-13T07:56:41.859Z,5.83
2018-06-13T07:59:10.599Z,5.77
2018-06-13T08:01:39.467Z,6.33
2018-06-13T08:04:08.231Z,7.03
2018-06-13T08:06:36.959Z,6.77
2018-06-13T08:09:07.871Z,6.60
2018-06-13T08:11:38.615Z,7.03
2018-06-13T08:14:12.723Z,10.10
2018-06-13T08:16:48.200Z,7.27
2018-06-13T08:19:20.875Z,11.33
2018-06-13T08:21:49.719Z,8.47
2018-06-13T08:24:24.187Z,7.37
2018-06-13T08:26:54.091Z,7.97
2018-06-13T08:29:23.939Z,7.93
2018-06-13T08:32:07.673Z,15.30
2018-06-13T08:34:43.934Z,10.90
2018-06-13T08:37:23.967Z,8.33
2018-06-13T08:40:03.511Z,8.13
2018-06-13T08:45:26.455Z,7.77
2018-06-13T08:48:12.618Z,10.97
2018-06-13T08:50:41.415Z,8.63
2018-06-13T08:53:32.680Z,8.20
2018-06-13T08:56:11.795Z,9.13
2018-06-13T08:58:40.635Z,7.70
2018-06-13T09:01:14.064Z,6.60
2018-06-13T09:03:43.870Z,7.47
2018-06-13T09:06:22.727Z,11.13
2018-06-13T09:08:51.550Z,11.33
2018-06-13T09:11:26.015Z,11.03
2018-06-13T09:13:59.997Z,11.13
2018-06-13T09:16:32.184Z,8.40
2018-06-13T09:19:00.934Z,7.93
2018-06-13T09:21:35.721Z,11.37
2018-06-13T09:24:08.896Z,9.57
2018-06-13T09:26:37.658Z,10.80
2018-06-13T09:29:06.395Z,7.60
2018-06-13T09:31:41.175Z,10.27
2018-06-13T09:34:13.554Z,8.23
2018-06-13T09:36:43.391Z,11.70
2018-06-13T09:39:13.330Z,9.87
2018-06-13T09:41:50.702Z,6.80
2018-06-13T09:44:36.809Z,8.13
2018-06-13T09:47:06.901Z,5.53
2018-06-13T09:49:36.374Z,5.77
2018-06-13T09:52:05.118Z,6.90
2018-06-13T09:54:37.144Z,5.07
2018-06-13T09:57:05.903Z,6.70
2018-06-13T09:59:41.035Z,6.90
2018-06-13T10:02:15.385Z,5.13
2018-06-13T10:05:02.224Z,6.80
2018-06-13T10:07:42.635Z,6.27
2018-06-13T10:10:20.359Z,7.37
2018-06-13T10:13:03.131Z,5.93
2018-06-13T10:15:38.555Z,6.30
2018-06-13T10:18:09.310Z,5.57
2018-06-13T10:20:38.074Z,6.70
2018-06-13T10:23:08.862Z,5.23
2018-06-13T10:25:43.739Z,7.50
2018-06-13T10:28:12.855Z,5.03
2018-06-13T10:30:46.618Z,6.73
2018-06-13T10:33:15.362Z,5.77
2018-06-13T10:35:44.142Z,5.53
2018-06-13T10:38:21.043Z,5.13
2018-06-13T10:40:51.854Z,5.50
2018-06-13T10:43:23.754Z,6.83
2018-06-13T10:46:03.178Z,4.53
2018-06-13T10:48:39.342Z,5.03
2018-06-13T10:51:20.348Z,5.50
2018-06-13T10:54:03.154Z,6.13
2018-06-13T10:56:32.030Z,5.80
2018-06-13T10:59:04.702Z,5.50
2018-06-13T11:01:34.486Z,4.97
2018-06-13T11:04:04.238Z,8.57
2018-06-13T11:06:34.969Z,5.23
2018-06-13T11:09:05.782Z,6.57
2018-06-13T11:11:34.626Z,4.30
2018-06-13T11:14:04.826Z,4.90
2018-06-13T11:16:38.270Z,4.40
2018-06-13T11:22:03.974Z,4.07
2018-06-13T11:24:48.845Z,5.10
2018-06-13T11:27:17.582Z,7.53
2018-06-13T11:30:02.922Z,3.90
2018-06-13T11:32:49.838Z,4.60
2018-06-13T11:35:26.750Z,7.97
2018-06-13T11:38:01.126Z,8.03
2018-06-13T11:40:41.958Z,3.60
2018-06-13T11:43:16.265Z,3.80
2018-06-13T11:45:52.678Z,4.30
2018-06-13T11:48:25.093Z,4.40
2018-06-13T11:50:53.885Z,4.10
2018-06-13T11:53:28.147Z,5.10
2018-06-13T11:56:00.822Z,3.63
2018-06-13T11:58:34.765Z,5.47
2018-06-13T12:01:04.637Z,3.43
2018-06-13T12:03:34.490Z,7.10
2018-06-13T12:06:04.383Z,3.50
2018-06-13T12:08:33.158Z,3.77
2018-06-13T12:11:03.985Z,4.90
2018-06-13T12:13:41.086Z,6.73
2018-06-13T12:16:09.941Z,3.20
2018-06-13T12:18:39.785Z,3.63
2018-06-13T12:21:12.682Z,4.33
2018-06-13T12:23:41.446Z,3.97
2018-06-13T12:26:10.457Z,4.20
2018-06-13T12:28:40.495Z,4.37
2018-06-13T12:31:09.261Z,6.87
2018-06-13T12:33:40.026Z,4.20
2018-06-13T12:36:13.842Z,4.60
2018-06-13T12:38:43.673Z,4.33
2018-06-13T12:41:12.570Z,4.40
2018-06-13T12:43:44.158Z,5.23
2018-06-13T12:46:12.926Z,4.33
2018-06-13T12:48:41.669Z,3.90
2018-06-13T12:51:11.542Z,4.33
2018-06-13T12:53:56.501Z,4.67
2018-06-13T12:56:30.301Z,5.20
2018-06-13T12:59:04.249Z,4.80
2018-06-13T13:01:34.943Z,4.03
2018-06-13T13:04:04.742Z,4.73
2018-06-13T13:06:33.609Z,4.50
2018-06-13T13:09:07.521Z,5.10
2018-06-13T13:11:36.328Z,5.00
2018-06-13T13:14:05.193Z,5.67
2018-06-13T13:16:33.990Z,7.13
2018-06-13T13:19:02.881Z,5.30
2018-06-13T13:21:31.770Z,5.50
2018-06-13T13:24:01.973Z,5.30
2018-06-13T13:26:30.897Z,4.80
2018-06-13T13:29:04.290Z,5.17
2018-06-13T13:31:33.181Z,5.47
2018-06-13T13:34:02.073Z,7.17
2018-06-13T13:36:31.118Z,5.03
2018-06-13T13:38:59.934Z,4.60
2018-06-13T13:41:32.933Z,5.30
2018-06-13T13:44:02.721Z,4.17
2018-06-13T13:46:31.506Z,5.33
2018-06-13T13:49:02.702Z,5.40
2018-06-13T13:51:38.442Z,4.97
2018-06-13T13:54:07.444Z,4.90
2018-06-13T13:56:40.625Z,3.93
2018-06-13T13:59:15.681Z,4.13
2018-06-13T14:02:02.758Z,5.20
2018-06-13T14:07:30.161Z,5.27
2018-06-13T14:09:59.074Z,4.67
2018-06-13T14:12:27.857Z,4.80
2018-06-13T14:15:01.592Z,5.30
2018-06-13T14:17:35.921Z,4.10
2018-06-13T14:20:06.049Z,4.50
2018-06-13T14:22:39.317Z,5.10
2018-06-13T14:25:10.177Z,4.73
2018-06-13T14:27:50.185Z,4.23
2018-06-13T14:30:29.085Z,4.00
2018-06-13T14:33:02.149Z,3.70
2018-06-13T14:35:31.913Z,3.70
2018-06-13T14:38:11.699Z,3.93
2018-06-13T14:40:40.589Z,4.10
2018-06-13T14:43:09.729Z,10.90
2018-06-13T14:45:49.757Z,4.03
2018-06-13T14:48:23.125Z,3.37
2018-06-13T14:50:56.669Z,9.50
2018-06-13T14:53:26.554Z,4.33
2018-06-13T14:56:00.865Z,4.33
2018-06-13T14:58:29.949Z,3.30
2018-06-13T15:01:04.434Z,3.40
2018-06-13T15:03:33.250Z,5.80
2018-06-13T15:06:05.765Z,6.13
2018-06-13T15:08:38.484Z,4.07
2018-06-13T15:11:10.305Z,5.53
2018-06-13T15:13:43.097Z,7.10
2018-06-13T15:16:16.066Z,3.63
2018-06-13T15:18:45.173Z,4.63
2018-06-13T15:21:20.157Z,4.20
2018-06-13T15:23:52.601Z,4.80
2018-06-13T15:26:24.521Z,4.00
2018-06-13T15:28:56.569Z,4.00
2018-06-13T15:31:28.533Z,6.00
2018-06-13T15:33:57.429Z,6.57
2018-06-13T15:36:26.429Z,5.70
2018-06-13T15:38:55.297Z,3.43
2018-06-13T15:41:24.093Z,6.60
2018-06-13T15:43:54.976Z,5.50
2018-06-13T15:46:24.828Z,4.70
2018-06-13T15:48:58.337Z,5.50
2018-06-13T15:51:28.085Z,4.77
2018-06-13T15:53:57.973Z,4.77
2018-06-13T15:56:28.793Z,8.30
2018-06-13T15:59:01.421Z,3.83
2018-06-13T16:01:36.205Z,4.10
2018-06-13T16:04:05.057Z,5.40
2018-06-13T16:06:35.744Z,4.33
2018-06-13T16:09:07.625Z,4.73
2018-06-13T16:11:43.524Z,6.47
2018-06-13T16:14:13.418Z,3.80
2018-06-13T16:16:42.689Z,6.43
2018-06-13T16:19:11.521Z,4.70
2018-06-13T16:21:40.304Z,4.90
2018-06-13T16:24:10.121Z,3.97
2018-06-13T16:26:39.732Z,3.37
2018-06-13T16:29:08.529Z,3.90
2018-06-13T16:31:37.314Z,3.60
2018-06-13T16:34:06.104Z,3.83
2018-06-13T16:36:36.881Z,3.53
2018-06-13T16:39:07.652Z,4.83
2018-06-13T16:41:36.512Z,3.73
2018-06-13T16:44:05.525Z,3.83
2018-06-13T16:46:39.502Z,4.50
2018-06-13T16:49:09.388Z,5.50
2018-06-13T16:51:47.365Z,4.60
2018-06-13T16:54:32.557Z,2.90
2018-06-13T16:57:02.191Z,3.43
2018-06-13T16:59:30.890Z,3.30
2018-06-13T17:02:00.753Z,3.27
2018-06-13T17:04:29.536Z,9.13
2018-06-13T17:07:03.697Z,3.07
2018-06-13T17:09:35.733Z,2.70
2018-06-13T17:12:04.537Z,5.43
2018-06-13T17:14:33.304Z,3.40
2018-06-13T17:17:05.317Z,4.23
2018-06-13T17:19:35.269Z,3.23
2018-06-13T17:22:07.389Z,2.40
2018-06-13T17:24:39.221Z,2.83
2018-06-13T17:27:08.201Z,3.67
2018-06-13T17:29:37.153Z,4.03
2018-06-13T17:32:05.941Z,3.30
2018-06-13T17:34:36.913Z,4.33
2018-06-13T17:37:06.657Z,2.77
2018-06-13T17:39:36.500Z,3.00
2018-06-13T17:42:06.304Z,3.13
2018-06-13T17:44:35.193Z,2.67
2018-06-13T17:47:09.565Z,3.97
2018-06-13T17:49:39.401Z,2.30
2018-06-13T17:52:08.521Z,3.13
2018-06-13T17:54:39.465Z,2.87
2018-06-13T17:57:13.760Z,3.60
2018-06-13T17:59:43.641Z,4.47
2018-06-13T18:02:12.529Z,2.43
2018-06-13T18:04:41.409Z,3.40
2018-06-13T18:07:22.281Z,5.80
2018-06-13T18:09:57.249Z,4.43
2018-06-13T18:12:26.147Z,4.50
2018-06-13T18:14:55.953Z,4.80
2018-06-13T18:17:24.806Z,3.67
2018-06-13T18:19:54.621Z,7.60
2018-06-13T18:22:23.660Z,4.10
2018-06-13T18:24:52.552Z,3.87
2018-06-13T18:27:21.492Z,3.20
2018-06-13T18:29:59.468Z,2.90
2018-06-13T18:32:29.196Z,3.50
2018-06-13T18:35:00.042Z,5.00
2018-06-13T18:37:36.728Z,3.87
2018-06-13T18:40:06.556Z,3.00
2018-06-13T18:42:49.988Z,4.17
2018-06-13T18:45:18.764Z,6.43
2018-06-13T18:48:02.566Z,3.67
2018-06-13T18:50:36.508Z,3.50
2018-06-13T18:53:06.296Z,2.50
2018-06-13T18:55:36.352Z,4.60
2018-06-13T18:58:05.148Z,4.43
2018-06-13T19:00:42.952Z,4.03
2018-06-13T19:03:13.815Z,6.20
2018-06-13T19:05:43.636Z,3.57
2018-06-13T19:08:12.388Z,4.87
2018-06-13T19:10:49.735Z,5.20
2018-06-13T19:13:19.526Z,5.70
2018-06-13T19:15:49.336Z,3.63
2018-06-13T19:18:20.092Z,3.60
2018-06-13T19:20:48.960Z,4.20
2018-06-13T19:23:19.744Z,3.83
2018-06-13T19:25:48.472Z,3.20
2018-06-13T19:28:23.315Z,3.83
2018-06-13T19:30:52.147Z,3.23
2018-06-13T19:33:20.995Z,4.47
2018-06-13T19:35:56.235Z,3.40
2018-06-13T19:38:26.027Z,2.93
2018-06-13T19:41:07.183Z,3.53
2018-06-13T19:43:40.175Z,3.73
2018-06-13T19:46:15.159Z,3.17
2018-06-13T19:48:48.667Z,2.60
2018-06-13T19:51:17.536Z,4.13
2018-06-13T19:53:55.411Z,2.80
2018-06-13T19:56:27.879Z,2.50
2018-06-13T19:58:57.519Z,4.70
2018-06-13T20:01:28.270Z,3.20
2018-06-13T20:04:03.663Z,2.63
2018-06-13T20:06:39.211Z,2.80
2018-06-13T20:09:10.698Z,8.00
2018-06-13T20:11:39.863Z,3.17
2018-06-13T20:14:16.067Z,2.87
2018-06-13T20:16:52.450Z,4.60
2018-06-13T20:19:30.111Z,2.47
2018-06-13T20:21:59.624Z,2.70
2018-06-13T20:24:30.256Z,5.93
2018-06-13T20:27:05.423Z,5.70
2018-06-13T20:29:41.665Z,3.20
2018-06-13T20:32:28.817Z,3.33
2018-06-13T20:34:59.879Z,3.10
2018-06-13T20:37:29.735Z,3.80
2018-06-13T20:39:58.491Z,5.07
2018-06-13T20:42:28.374Z,4.63
2018-06-13T20:45:00.323Z,5.70
2018-06-13T20:47:36.499Z,5.20
2018-06-13T20:50:05.319Z,6.50
2018-06-13T20:52:38.819Z,4.67
2018-06-13T20:55:07.655Z,4.00
2018-06-13T20:57:37.531Z,4.27
2018-06-13T21:00:06.051Z,4.80
2018-06-13T21:02:36.779Z,4.60
2018-06-13T21:05:08.843Z,4.40
2018-06-13T21:07:37.651Z,4.63
2018-06-13T21:10:06.455Z,4.20
2018-06-13T21:12:35.255Z,3.27
2018-06-13T21:15:04.915Z,3.73
2018-06-13T21:17:33.869Z,4.60
2018-06-13T21:20:05.674Z,4.27
2018-06-13T21:22:35.474Z,3.33
2018-06-13T21:25:05.302Z,10.33
2018-06-13T21:27:37.786Z,3.70
2018-06-13T21:30:06.583Z,2.93
2018-06-13T21:32:48.650Z,3.40
2018-06-13T21:35:17.420Z,3.03
2018-06-13T21:37:46.184Z,3.07
2018-06-13T21:40:14.785Z,3.47
2018-06-13T21:42:43.555Z,2.83
2018-06-13T21:45:16.839Z,7.23
2018-06-13T21:47:45.350Z,2.57
2018-06-13T21:50:17.779Z,3.17
2018-06-13T21:52:46.590Z,4.27
2018-06-13T21:55:15.395Z,4.40
2018-06-13T21:57:44.263Z,3.93
2018-06-13T22:00:14.178Z,4.57
2018-06-13T22:02:46.571Z,2.77
2018-06-13T22:05:19.071Z,2.73
2018-06-13T22:07:47.935Z,3.37
2018-06-13T22:10:17.687Z,3.70
2018-06-13T22:12:46.506Z,5.50
2018-06-13T22:15:24.016Z,3.90
2018-06-13T22:18:04.362Z,3.73
2018-06-13T22:20:38.625Z,4.47
2018-06-13T22:23:07.479Z,3.83
2018-06-13T22:25:39.663Z,3.83
2018-06-13T22:28:08.555Z,4.07
2018-06-13T22:30:43.047Z,4.07
2018-06-13T22:33:12.922Z,5.43
2018-06-13T22:35:48.835Z,5.10
2018-06-13T22:38:17.751Z,5.63
2018-06-13T22:40:52.123Z,4.33
2018-06-13T22:43:23.896Z,6.53
2018-06-13T22:45:52.795Z,4.13
2018-06-13T22:48:21.683Z,5.30
2018-06-13T22:50:51.547Z,2.63
2018-06-13T22:53:20.443Z,2.70
2018-06-13T22:55:50.159Z,3.80
2018-06-13T22:58:30.395Z,7.53
2018-06-13T23:01:11.363Z,3.30
2018-06-13T23:03:40.247Z,4.83
2018-06-13T23:06:17.044Z,4.70
2018-06-13T23:08:46.927Z,3.43
2018-06-13T23:11:17.739Z,6.53
2018-06-13T23:13:52.615Z,3.00
2018-06-13T23:16:21.443Z,3.50
2018-06-13T23:18:53.606Z,3.97
2018-06-13T23:21:38.399Z,4.33
2018-06-13T23:24:07.299Z,3.93
2018-06-13T23:26:42.093Z,5.37
2018-06-13T23:29:13.083Z,4.60
2018-06-13T23:31:55.607Z,2.93
2018-06-13T23:34:24.415Z,6.03
2018-06-13T23:36:54.235Z,4.03
2018-06-13T23:39:24.063Z,3.57
2018-06-13T23:42:06.123Z,3.83
2018-06-13T23:44:35.870Z,4.43
2018-06-13T23:47:05.671Z,3.87
2018-06-13T23:49:50.055Z,5.83
2018-06-13T23:52:19.690Z,3.57
2018-06-13T23:54:58.291Z,4.07
2018-06-13T23:57:30.823Z,4.67
